sensor_id;sensor_type;location;lat;lon;timestamp;temperature;humidity
43099;DHT22;28715;51.988;6.020;2022-07-10T00:01:31;17.40;90.30
43099;DHT22;28715;51.988;6.020;2022-07-10T00:03:56;17.40;90.20
43099;DHT22;28715;51.988;6.020;2022-07-10T00:06:22;17.40;90.40
43099;DHT22;28715;51.988;6.020;2022-07-10T00:08:47;17.40;90.50
43099;DHT22;28715;51.988;6.020;2022-07-10T00:11:13;17.40;90.50
43099;DHT22;28715;51.988;6.020;2022-07-10T00:13:38;17.40;90.60
43099;DHT22;28715;51.988;6.020;2022-07-10T00:16:04;17.40;90.70
43099;DHT22;28715;51.988;6.020;2022-07-10T00:18:30;17.40;90.50
43099;DHT22;28715;51.988;6.020;2022-07-10T00:20:56;17.40;90.50
43099;DHT22;28715;51.988;6.020;2022-07-10T00:23:21;17.40;90.60
43099;DHT22;28715;51.988;6.020;2022-07-10T00:25:47;17.50;90.60
43099;DHT22;28715;51.988;6.020;2022-07-10T00:28:13;17.50;90.60
43099;DHT22;28715;51.988;6.020;2022-07-10T00:30:38;17.50;90.60
43099;DHT22;28715;51.988;6.020;2022-07-10T00:33:04;17.50;90.70
43099;DHT22;28715;51.988;6.020;2022-07-10T00:35:31;17.50;90.70
43099;DHT22;28715;51.988;6.020;2022-07-10T00:37:56;17.40;90.80
43099;DHT22;28715;51.988;6.020;2022-07-10T00:40:22;17.40;90.90
43099;DHT22;28715;51.988;6.020;2022-07-10T00:42:48;17.40;90.90
43099;DHT22;28715;51.988;6.020;2022-07-10T00:45:13;17.40;91.00
43099;DHT22;28715;51.988;6.020;2022-07-10T00:47:39;17.40;91.10
43099;DHT22;28715;51.988;6.020;2022-07-10T00:50:05;17.40;91.10
43099;DHT22;28715;51.988;6.020;2022-07-10T00:52:32;17.40;91.10
43099;DHT22;28715;51.988;6.020;2022-07-10T00:55:05;17.40;91.20
43099;DHT22;28715;51.988;6.020;2022-07-10T00:57:31;17.40;91.30
43099;DHT22;28715;51.988;6.020;2022-07-10T00:59:58;17.40;91.40
43099;DHT22;28715;51.988;6.020;2022-07-10T01:02:24;17.40;91.40
43099;DHT22;28715;51.988;6.020;2022-07-10T01:04:49;17.40;91.50
43099;DHT22;28715;51.988;6.020;2022-07-10T01:07:15;17.40;91.50
43099;DHT22;28715;51.988;6.020;2022-07-10T01:09:41;17.40;91.50
43099;DHT22;28715;51.988;6.020;2022-07-10T01:12:08;17.40;91.50
43099;DHT22;28715;51.988;6.020;2022-07-10T01:14:35;17.40;91.50
43099;DHT22;28715;51.988;6.020;2022-07-10T01:17:04;17.40;91.50
43099;DHT22;28715;51.988;6.020;2022-07-10T01:19:30;17.40;91.60
43099;DHT22;28715;51.988;6.020;2022-07-10T01:21:56;17.40;91.60
43099;DHT22;28715;51.988;6.020;2022-07-10T01:24:21;17.40;91.70
43099;DHT22;28715;51.988;6.020;2022-07-10T01:26:47;17.50;91.70
43099;DHT22;28715;51.988;6.020;2022-07-10T01:29:13;17.50;91.70
43099;DHT22;28715;51.988;6.020;2022-07-10T01:31:38;17.50;91.70
43099;DHT22;28715;51.988;6.020;2022-07-10T01:34:08;17.50;91.60
43099;DHT22;28715;51.988;6.020;2022-07-10T01:36:37;17.50;91.60
43099;DHT22;28715;51.988;6.020;2022-07-10T01:39:04;17.40;91.70
43099;DHT22;28715;51.988;6.020;2022-07-10T01:41:30;17.40;91.70
43099;DHT22;28715;51.988;6.020;2022-07-10T01:43:55;17.40;91.70
43099;DHT22;28715;51.988;6.020;2022-07-10T01:46:21;17.40;91.80
43099;DHT22;28715;51.988;6.020;2022-07-10T01:48:47;17.30;91.70
43099;DHT22;28715;51.988;6.020;2022-07-10T01:51:13;17.30;91.70
43099;DHT22;28715;51.988;6.020;2022-07-10T01:53:40;17.20;91.70
43099;DHT22;28715;51.988;6.020;2022-07-10T01:56:08;17.20;91.80
43099;DHT22;28715;51.988;6.020;2022-07-10T01:58:34;17.10;91.90
43099;DHT22;28715;51.988;6.020;2022-07-10T02:01:01;17.10;91.90
43099;DHT22;28715;51.988;6.020;2022-07-10T02:03:27;17.10;92.00
43099;DHT22;28715;51.988;6.020;2022-07-10T02:06:11;17.10;92.00
43099;DHT22;28715;51.988;6.020;2022-07-10T02:08:36;17.10;92.10
43099;DHT22;28715;51.988;6.020;2022-07-10T02:11:02;17.10;92.20
43099;DHT22;28715;51.988;6.020;2022-07-10T02:13:27;17.10;92.30
43099;DHT22;28715;51.988;6.020;2022-07-10T02:15:54;17.10;92.30
43099;DHT22;28715;51.988;6.020;2022-07-10T02:18:20;17.10;92.20
43099;DHT22;28715;51.988;6.020;2022-07-10T02:20:46;17.10;92.10
43099;DHT22;28715;51.988;6.020;2022-07-10T02:23:12;17.10;92.10
43099;DHT22;28715;51.988;6.020;2022-07-10T02:25:38;17.10;92.10
43099;DHT22;28715;51.988;6.020;2022-07-10T02:28:04;17.10;92.10
43099;DHT22;28715;51.988;6.020;2022-07-10T02:30:30;17.10;92.10
43099;DHT22;28715;51.988;6.020;2022-07-10T02:32:56;17.10;92.10
43099;DHT22;28715;51.988;6.020;2022-07-10T02:35:21;17.10;92.20
43099;DHT22;28715;51.988;6.020;2022-07-10T02:37:47;17.10;92.00
43099;DHT22;28715;51.988;6.020;2022-07-10T02:40:12;17.10;92.10
43099;DHT22;28715;51.988;6.020;2022-07-10T02:42:38;17.00;92.00
43099;DHT22;28715;51.988;6.020;2022-07-10T02:45:04;17.10;91.90
43099;DHT22;28715;51.988;6.020;2022-07-10T02:47:30;17.10;91.90
43099;DHT22;28715;51.988;6.020;2022-07-10T02:49:55;17.00;91.80
43099;DHT22;28715;51.988;6.020;2022-07-10T02:52:21;17.10;91.90
43099;DHT22;28715;51.988;6.020;2022-07-10T02:54:46;17.00;91.80
43099;DHT22;28715;51.988;6.020;2022-07-10T02:57:12;17.00;91.90
43099;DHT22;28715;51.988;6.020;2022-07-10T02:59:37;17.00;91.90
43099;DHT22;28715;51.988;6.020;2022-07-10T03:02:03;16.90;91.80
43099;DHT22;28715;51.988;6.020;2022-07-10T03:04:29;16.90;91.90
43099;DHT22;28715;51.988;6.020;2022-07-10T03:06:54;16.90;92.00
43099;DHT22;28715;51.988;6.020;2022-07-10T03:09:20;16.80;92.00
43099;DHT22;28715;51.988;6.020;2022-07-10T03:11:45;16.90;92.10
43099;DHT22;28715;51.988;6.020;2022-07-10T03:14:11;16.90;92.10
43099;DHT22;28715;51.988;6.020;2022-07-10T03:16:36;16.80;92.10
43099;DHT22;28715;51.988;6.020;2022-07-10T03:19:02;16.90;92.20
43099;DHT22;28715;51.988;6.020;2022-07-10T03:21:28;16.80;92.30
43099;DHT22;28715;51.988;6.020;2022-07-10T03:23:55;16.80;92.20
43099;DHT22;28715;51.988;6.020;2022-07-10T03:26:21;16.90;92.20
43099;DHT22;28715;51.988;6.020;2022-07-10T03:28:46;16.90;92.20
43099;DHT22;28715;51.988;6.020;2022-07-10T03:31:12;16.90;92.30
43099;DHT22;28715;51.988;6.020;2022-07-10T03:33:37;16.90;92.20
43099;DHT22;28715;51.988;6.020;2022-07-10T03:36:04;16.90;92.30
43099;DHT22;28715;51.988;6.020;2022-07-10T03:38:31;16.90;92.30
43099;DHT22;28715;51.988;6.020;2022-07-10T03:40:57;17.00;92.20
43099;DHT22;28715;51.988;6.020;2022-07-10T03:43:22;16.90;92.20
43099;DHT22;28715;51.988;6.020;2022-07-10T03:45:48;17.00;92.30
43099;DHT22;28715;51.988;6.020;2022-07-10T03:48:13;16.90;92.20
43099;DHT22;28715;51.988;6.020;2022-07-10T03:50:39;17.00;92.30
43099;DHT22;28715;51.988;6.020;2022-07-10T03:53:04;16.90;92.40
43099;DHT22;28715;51.988;6.020;2022-07-10T03:55:30;16.90;92.50
43099;DHT22;28715;51.988;6.020;2022-07-10T03:57:55;16.90;92.50
43099;DHT22;28715;51.988;6.020;2022-07-10T04:00:28;16.90;92.50
43099;DHT22;28715;51.988;6.020;2022-07-10T04:02:55;16.80;92.50
43099;DHT22;28715;51.988;6.020;2022-07-10T04:05:21;16.80;92.70
43099;DHT22;28715;51.988;6.020;2022-07-10T04:07:47;16.80;92.90
43099;DHT22;28715;51.988;6.020;2022-07-10T04:10:13;16.80;92.90
43099;DHT22;28715;51.988;6.020;2022-07-10T04:12:38;16.80;93.00
43099;DHT22;28715;51.988;6.020;2022-07-10T04:15:04;16.70;93.00
43099;DHT22;28715;51.988;6.020;2022-07-10T04:17:30;16.70;93.00
43099;DHT22;28715;51.988;6.020;2022-07-10T04:19:58;16.70;93.10
43099;DHT22;28715;51.988;6.020;2022-07-10T04:22:24;16.70;93.20
43099;DHT22;28715;51.988;6.020;2022-07-10T04:24:50;16.70;93.30
43099;DHT22;28715;51.988;6.020;2022-07-10T04:27:16;16.80;93.40
43099;DHT22;28715;51.988;6.020;2022-07-10T04:29:42;16.80;93.40
43099;DHT22;28715;51.988;6.020;2022-07-10T04:32:08;16.80;93.50
43099;DHT22;28715;51.988;6.020;2022-07-10T04:34:34;16.80;93.60
43099;DHT22;28715;51.988;6.020;2022-07-10T04:36:59;16.80;93.60
43099;DHT22;28715;51.988;6.020;2022-07-10T04:39:25;16.80;93.70
43099;DHT22;28715;51.988;6.020;2022-07-10T04:41:51;16.80;93.60
43099;DHT22;28715;51.988;6.020;2022-07-10T04:44:18;16.80;93.70
43099;DHT22;28715;51.988;6.020;2022-07-10T04:46:44;16.80;93.80
43099;DHT22;28715;51.988;6.020;2022-07-10T04:49:09;16.90;93.80
43099;DHT22;28715;51.988;6.020;2022-07-10T04:51:35;16.90;94.00
43099;DHT22;28715;51.988;6.020;2022-07-10T04:54:00;16.90;93.70
43099;DHT22;28715;51.988;6.020;2022-07-10T04:56:26;16.90;93.60
43099;DHT22;28715;51.988;6.020;2022-07-10T04:58:52;16.90;93.60
43099;DHT22;28715;51.988;6.020;2022-07-10T05:01:18;17.00;93.60
43099;DHT22;28715;51.988;6.020;2022-07-10T05:03:43;17.00;93.60
43099;DHT22;28715;51.988;6.020;2022-07-10T05:06:09;17.10;93.50
43099;DHT22;28715;51.988;6.020;2022-07-10T05:08:34;17.00;93.40
43099;DHT22;28715;51.988;6.020;2022-07-10T05:11:00;17.00;93.50
43099;DHT22;28715;51.988;6.020;2022-07-10T05:13:25;17.00;93.60
43099;DHT22;28715;51.988;6.020;2022-07-10T05:15:51;17.10;93.70
43099;DHT22;28715;51.988;6.020;2022-07-10T05:18:17;17.10;93.50
43099;DHT22;28715;51.988;6.020;2022-07-10T05:20:42;17.10;93.50
43099;DHT22;28715;51.988;6.020;2022-07-10T05:23:10;17.10;93.60
43099;DHT22;28715;51.988;6.020;2022-07-10T05:25:37;17.10;93.60
43099;DHT22;28715;51.988;6.020;2022-07-10T05:28:03;17.10;93.80
43099;DHT22;28715;51.988;6.020;2022-07-10T05:30:30;17.20;93.50
43099;DHT22;28715;51.988;6.020;2022-07-10T05:32:55;17.20;93.50
43099;DHT22;28715;51.988;6.020;2022-07-10T05:35:21;17.20;93.30
43099;DHT22;28715;51.988;6.020;2022-07-10T05:37:46;17.30;93.20
43099;DHT22;28715;51.988;6.020;2022-07-10T05:40:12;17.40;93.30
43099;DHT22;28715;51.988;6.020;2022-07-10T05:42:37;17.50;93.10
43099;DHT22;28715;51.988;6.020;2022-07-10T05:45:03;17.50;92.90
43099;DHT22;28715;51.988;6.020;2022-07-10T05:47:31;17.50;92.90
43099;DHT22;28715;51.988;6.020;2022-07-10T05:49:56;17.50;93.10
43099;DHT22;28715;51.988;6.020;2022-07-10T05:52:22;17.50;93.10
43099;DHT22;28715;51.988;6.020;2022-07-10T05:54:47;17.50;93.30
43099;DHT22;28715;51.988;6.020;2022-07-10T05:57:13;17.50;93.40
43099;DHT22;28715;51.988;6.020;2022-07-10T05:59:38;17.60;93.40
43099;DHT22;28715;51.988;6.020;2022-07-10T06:02:04;17.60;93.40
43099;DHT22;28715;51.988;6.020;2022-07-10T06:04:29;17.60;93.40
43099;DHT22;28715;51.988;6.020;2022-07-10T06:06:55;17.60;93.40
43099;DHT22;28715;51.988;6.020;2022-07-10T06:09:21;17.60;93.40
43099;DHT22;28715;51.988;6.020;2022-07-10T06:11:46;17.50;93.50
43099;DHT22;28715;51.988;6.020;2022-07-10T06:14:13;17.60;93.50
43099;DHT22;28715;51.988;6.020;2022-07-10T06:16:39;17.60;93.60
43099;DHT22;28715;51.988;6.020;2022-07-10T06:19:05;17.60;93.60
43099;DHT22;28715;51.988;6.020;2022-07-10T06:21:30;17.50;93.60
43099;DHT22;28715;51.988;6.020;2022-07-10T06:23:56;17.40;93.80
43099;DHT22;28715;51.988;6.020;2022-07-10T06:26:21;17.40;93.90
43099;DHT22;28715;51.988;6.020;2022-07-10T06:28:47;17.40;94.30
43099;DHT22;28715;51.988;6.020;2022-07-10T06:31:13;17.40;94.40
43099;DHT22;28715;51.988;6.020;2022-07-10T06:33:39;17.50;94.40
43099;DHT22;28715;51.988;6.020;2022-07-10T06:36:05;17.50;94.40
43099;DHT22;28715;51.988;6.020;2022-07-10T06:38:30;17.50;94.40
43099;DHT22;28715;51.988;6.020;2022-07-10T06:40:56;17.50;94.50
43099;DHT22;28715;51.988;6.020;2022-07-10T06:43:22;17.60;94.50
43099;DHT22;28715;51.988;6.020;2022-07-10T06:45:48;17.60;94.60
43099;DHT22;28715;51.988;6.020;2022-07-10T06:48:14;17.60;94.70
43099;DHT22;28715;51.988;6.020;2022-07-10T06:50:40;17.50;95.00
43099;DHT22;28715;51.988;6.020;2022-07-10T06:53:06;17.40;95.60
43099;DHT22;28715;51.988;6.020;2022-07-10T06:55:32;17.40;96.10
43099;DHT22;28715;51.988;6.020;2022-07-10T06:57:59;17.30;96.50
43099;DHT22;28715;51.988;6.020;2022-07-10T07:00:25;17.30;96.90
43099;DHT22;28715;51.988;6.020;2022-07-10T07:02:50;17.30;97.30
43099;DHT22;28715;51.988;6.020;2022-07-10T07:05:16;17.30;97.60
43099;DHT22;28715;51.988;6.020;2022-07-10T07:07:42;17.20;98.00
43099;DHT22;28715;51.988;6.020;2022-07-10T07:10:09;17.20;98.40
43099;DHT22;28715;51.988;6.020;2022-07-10T07:12:34;17.20;98.80
43099;DHT22;28715;51.988;6.020;2022-07-10T07:15:00;17.20;98.90
43099;DHT22;28715;51.988;6.020;2022-07-10T07:17:26;17.20;99.00
43099;DHT22;28715;51.988;6.020;2022-07-10T07:19:59;17.20;99.40
43099;DHT22;28715;51.988;6.020;2022-07-10T07:22:44;17.20;99.50
43099;DHT22;28715;51.988;6.020;2022-07-10T07:25:28;17.30;99.70
43099;DHT22;28715;51.988;6.020;2022-07-10T07:27:54;17.30;99.80
43099;DHT22;28715;51.988;6.020;2022-07-10T07:30:19;17.30;99.90
43099;DHT22;28715;51.988;6.020;2022-07-10T07:32:46;17.30;99.90
43099;DHT22;28715;51.988;6.020;2022-07-10T07:35:13;17.40;99.90
43099;DHT22;28715;51.988;6.020;2022-07-10T07:37:41;17.50;99.90
43099;DHT22;28715;51.988;6.020;2022-07-10T07:40:09;17.50;99.90
43099;DHT22;28715;51.988;6.020;2022-07-10T07:42:35;17.60;99.90
43099;DHT22;28715;51.988;6.020;2022-07-10T07:45:01;17.60;99.90
43099;DHT22;28715;51.988;6.020;2022-07-10T07:47:27;17.60;99.90
43099;DHT22;28715;51.988;6.020;2022-07-10T07:49:52;17.70;99.90
43099;DHT22;28715;51.988;6.020;2022-07-10T07:52:18;17.70;99.90
43099;DHT22;28715;51.988;6.020;2022-07-10T07:54:44;17.80;99.90
43099;DHT22;28715;51.988;6.020;2022-07-10T07:57:09;17.80;99.90
43099;DHT22;28715;51.988;6.020;2022-07-10T07:59:35;17.90;99.90
43099;DHT22;28715;51.988;6.020;2022-07-10T08:02:00;17.90;99.90
43099;DHT22;28715;51.988;6.020;2022-07-10T08:04:26;17.90;99.90
43099;DHT22;28715;51.988;6.020;2022-07-10T08:06:52;17.80;99.90
43099;DHT22;28715;51.988;6.020;2022-07-10T08:09:19;17.80;99.90
43099;DHT22;28715;51.988;6.020;2022-07-10T08:11:45;17.90;99.90
43099;DHT22;28715;51.988;6.020;2022-07-10T08:14:10;17.90;99.90
43099;DHT22;28715;51.988;6.020;2022-07-10T08:16:36;17.80;99.90
43099;DHT22;28715;51.988;6.020;2022-07-10T08:19:01;17.80;99.90
43099;DHT22;28715;51.988;6.020;2022-07-10T08:21:27;17.70;99.90
43099;DHT22;28715;51.988;6.020;2022-07-10T08:23:52;17.80;99.90
43099;DHT22;28715;51.988;6.020;2022-07-10T08:26:19;17.80;99.90
43099;DHT22;28715;51.988;6.020;2022-07-10T08:28:45;17.80;99.90
43099;DHT22;28715;51.988;6.020;2022-07-10T08:31:10;17.80;99.90
43099;DHT22;28715;51.988;6.020;2022-07-10T08:33:36;17.80;99.90
43099;DHT22;28715;51.988;6.020;2022-07-10T08:36:02;17.80;99.90
43099;DHT22;28715;51.988;6.020;2022-07-10T08:38:27;17.80;99.90
43099;DHT22;28715;51.988;6.020;2022-07-10T08:40:54;17.80;99.90
43099;DHT22;28715;51.988;6.020;2022-07-10T08:43:23;17.70;99.90
43099;DHT22;28715;51.988;6.020;2022-07-10T08:45:50;17.70;99.90
43099;DHT22;28715;51.988;6.020;2022-07-10T08:48:22;17.60;99.90
43099;DHT22;28715;51.988;6.020;2022-07-10T08:50:48;17.60;99.90
43099;DHT22;28715;51.988;6.020;2022-07-10T08:53:28;17.70;99.90
43099;DHT22;28715;51.988;6.020;2022-07-10T08:55:55;17.90;99.90
43099;DHT22;28715;51.988;6.020;2022-07-10T08:58:23;18.10;99.90
43099;DHT22;28715;51.988;6.020;2022-07-10T09:00:48;18.30;99.90
43099;DHT22;28715;51.988;6.020;2022-07-10T09:03:14;18.30;99.90
43099;DHT22;28715;51.988;6.020;2022-07-10T09:05:40;18.50;99.90
43099;DHT22;28715;51.988;6.020;2022-07-10T09:08:21;18.60;99.90
43099;DHT22;28715;51.988;6.020;2022-07-10T09:10:47;18.70;99.90
43099;DHT22;28715;51.988;6.020;2022-07-10T09:13:13;18.90;99.60
43099;DHT22;28715;51.988;6.020;2022-07-10T09:15:38;19.10;99.20
43099;DHT22;28715;51.988;6.020;2022-07-10T09:18:05;19.20;98.40
43099;DHT22;28715;51.988;6.020;2022-07-10T09:20:39;19.30;98.10
43099;DHT22;28715;51.988;6.020;2022-07-10T09:23:19;19.40;97.80
43099;DHT22;28715;51.988;6.020;2022-07-10T09:25:46;19.50;97.30
43099;DHT22;28715;51.988;6.020;2022-07-10T09:28:16;19.60;97.60
43099;DHT22;28715;51.988;6.020;2022-07-10T09:30:42;19.60;96.70
43099;DHT22;28715;51.988;6.020;2022-07-10T09:36:04;19.70;97.10
43099;DHT22;28715;51.988;6.020;2022-07-10T09:41:25;19.70;96.10
43099;DHT22;28715;51.988;6.020;2022-07-10T09:43:59;19.80;96.60
43099;DHT22;28715;51.988;6.020;2022-07-10T09:46:31;20.00;97.20
43099;DHT22;28715;51.988;6.020;2022-07-10T09:49:18;20.20;95.60
43099;DHT22;28715;51.988;6.020;2022-07-10T09:51:45;20.30;94.70
43099;DHT22;28715;51.988;6.020;2022-07-10T09:54:12;20.30;95.20
43099;DHT22;28715;51.988;6.020;2022-07-10T09:56:45;20.30;94.10
43099;DHT22;28715;51.988;6.020;2022-07-10T09:59:14;20.40;94.40
43099;DHT22;28715;51.988;6.020;2022-07-10T10:01:44;20.40;94.80
43099;DHT22;28715;51.988;6.020;2022-07-10T10:04:11;20.70;94.80
43099;DHT22;28715;51.988;6.020;2022-07-10T10:06:39;20.80;94.10
43099;DHT22;28715;51.988;6.020;2022-07-10T10:09:26;21.00;93.60
43099;DHT22;28715;51.988;6.020;2022-07-10T10:11:59;21.10;93.60
43099;DHT22;28715;51.988;6.020;2022-07-10T10:14:27;21.40;94.00
43099;DHT22;28715;51.988;6.020;2022-07-10T10:16:56;21.70;93.10
43099;DHT22;28715;51.988;6.020;2022-07-10T10:19:23;21.80;93.00
43099;DHT22;28715;51.988;6.020;2022-07-10T10:22:08;21.90;91.60
43099;DHT22;28715;51.988;6.020;2022-07-10T10:24:34;21.70;91.50
43099;DHT22;28715;51.988;6.020;2022-07-10T10:27:01;21.40;91.50
43099;DHT22;28715;51.988;6.020;2022-07-10T10:29:30;21.10;91.90
43099;DHT22;28715;51.988;6.020;2022-07-10T10:31:56;20.90;92.50
43099;DHT22;28715;51.988;6.020;2022-07-10T10:34:42;20.90;92.80
43099;DHT22;28715;51.988;6.020;2022-07-10T10:39:56;21.00;92.30
43099;DHT22;28715;51.988;6.020;2022-07-10T10:42:42;21.10;91.70
43099;DHT22;28715;51.988;6.020;2022-07-10T10:45:22;21.10;91.90
43099;DHT22;28715;51.988;6.020;2022-07-10T10:48:13;21.20;91.90
43099;DHT22;28715;51.988;6.020;2022-07-10T10:50:50;21.20;91.30
43099;DHT22;28715;51.988;6.020;2022-07-10T10:53:27;21.30;91.90
43099;DHT22;28715;51.988;6.020;2022-07-10T10:58:38;21.30;91.50
43099;DHT22;28715;51.988;6.020;2022-07-10T11:01:05;21.20;91.60
43099;DHT22;28715;51.988;6.020;2022-07-10T11:03:31;21.10;91.10
43099;DHT22;28715;51.988;6.020;2022-07-10T11:05:57;21.00;91.40
43099;DHT22;28715;51.988;6.020;2022-07-10T11:08:43;21.00;91.30
43099;DHT22;28715;51.988;6.020;2022-07-10T11:13:59;21.00;91.80
43099;DHT22;28715;51.988;6.020;2022-07-10T11:16:25;21.10;92.10
43099;DHT22;28715;51.988;6.020;2022-07-10T11:18:54;21.20;91.60
43099;DHT22;28715;51.988;6.020;2022-07-10T11:21:25;21.40;92.40
43099;DHT22;28715;51.988;6.020;2022-07-10T11:24:09;21.60;91.60
43099;DHT22;28715;51.988;6.020;2022-07-10T11:26:49;21.80;91.80
43099;DHT22;28715;51.988;6.020;2022-07-10T11:29:20;22.10;90.60
43099;DHT22;28715;51.988;6.020;2022-07-10T11:31:55;22.30;90.20
43099;DHT22;28715;51.988;6.020;2022-07-10T11:34:34;22.50;90.20
43099;DHT22;28715;51.988;6.020;2022-07-10T11:37:00;22.60;88.70
43099;DHT22;28715;51.988;6.020;2022-07-10T11:39:25;22.80;88.50
43099;DHT22;28715;51.988;6.020;2022-07-10T11:41:51;22.80;88.40
43099;DHT22;28715;51.988;6.020;2022-07-10T11:44:17;22.80;88.90
43099;DHT22;28715;51.988;6.020;2022-07-10T11:46:44;22.80;87.00
43099;DHT22;28715;51.988;6.020;2022-07-10T11:49:11;22.60;87.40
43099;DHT22;28715;51.988;6.020;2022-07-10T11:51:38;22.50;89.40
43099;DHT22;28715;51.988;6.020;2022-07-10T11:54:09;22.50;89.70
43099;DHT22;28715;51.988;6.020;2022-07-10T11:56:39;22.50;88.00
43099;DHT22;28715;51.988;6.020;2022-07-10T11:59:09;22.40;88.30
43099;DHT22;28715;51.988;6.020;2022-07-10T12:01:41;22.40;88.80
43099;DHT22;28715;51.988;6.020;2022-07-10T12:04:07;22.40;89.30
43099;DHT22;28715;51.988;6.020;2022-07-10T12:06:36;22.30;89.40
43099;DHT22;28715;51.988;6.020;2022-07-10T12:09:09;22.10;89.20
43099;DHT22;28715;51.988;6.020;2022-07-10T12:11:35;21.80;89.10
43099;DHT22;28715;51.988;6.020;2022-07-10T12:14:18;21.60;90.10
43099;DHT22;28715;51.988;6.020;2022-07-10T12:16:48;21.60;90.90
43099;DHT22;28715;51.988;6.020;2022-07-10T12:19:16;21.70;90.90
43099;DHT22;28715;51.988;6.020;2022-07-10T12:21:43;21.70;90.30
43099;DHT22;28715;51.988;6.020;2022-07-10T12:24:09;21.80;90.40
43099;DHT22;28715;51.988;6.020;2022-07-10T12:26:38;21.90;89.90
43099;DHT22;28715;51.988;6.020;2022-07-10T12:29:04;21.70;89.10
43099;DHT22;28715;51.988;6.020;2022-07-10T12:31:32;21.60;89.60
43099;DHT22;28715;51.988;6.020;2022-07-10T12:34:05;21.60;90.00
43099;DHT22;28715;51.988;6.020;2022-07-10T12:39:08;21.50;90.10
43099;DHT22;28715;51.988;6.020;2022-07-10T12:41:34;21.40;90.00
43099;DHT22;28715;51.988;6.020;2022-07-10T12:44:00;21.20;90.20
43099;DHT22;28715;51.988;6.020;2022-07-10T12:46:26;21.20;90.50
43099;DHT22;28715;51.988;6.020;2022-07-10T12:49:10;21.30;90.70
43099;DHT22;28715;51.988;6.020;2022-07-10T12:51:46;21.40;90.60
43099;DHT22;28715;51.988;6.020;2022-07-10T12:54:35;21.50;90.60
43099;DHT22;28715;51.988;6.020;2022-07-10T12:57:06;21.60;90.40
43099;DHT22;28715;51.988;6.020;2022-07-10T12:59:36;21.60;90.00
43099;DHT22;28715;51.988;6.020;2022-07-10T13:02:19;21.70;90.00
43099;DHT22;28715;51.988;6.020;2022-07-10T13:04:54;21.80;89.40
43099;DHT22;28715;51.988;6.020;2022-07-10T13:07:29;21.70;89.30
43099;DHT22;28715;51.988;6.020;2022-07-10T13:09:55;21.80;89.70
43099;DHT22;28715;51.988;6.020;2022-07-10T13:12:21;21.80;89.80
43099;DHT22;28715;51.988;6.020;2022-07-10T13:14:48;21.90;89.50
43099;DHT22;28715;51.988;6.020;2022-07-10T13:17:14;21.90;88.30
43099;DHT22;28715;51.988;6.020;2022-07-10T13:19:39;21.90;88.20
43099;DHT22;28715;51.988;6.020;2022-07-10T13:22:05;22.00;88.30
43099;DHT22;28715;51.988;6.020;2022-07-10T13:24:30;22.00;88.10
43099;DHT22;28715;51.988;6.020;2022-07-10T13:26:57;22.10;87.70
43099;DHT22;28715;51.988;6.020;2022-07-10T13:29:22;22.10;88.30
43099;DHT22;28715;51.988;6.020;2022-07-10T13:31:48;22.20;87.90
43099;DHT22;28715;51.988;6.020;2022-07-10T13:34:14;22.30;87.80
43099;DHT22;28715;51.988;6.020;2022-07-10T13:36:39;22.40;88.60
43099;DHT22;28715;51.988;6.020;2022-07-10T13:39:05;22.60;86.40
43099;DHT22;28715;51.988;6.020;2022-07-10T13:41:30;22.60;87.00
43099;DHT22;28715;51.988;6.020;2022-07-10T13:43:56;22.70;86.90
43099;DHT22;28715;51.988;6.020;2022-07-10T13:46:21;22.70;86.00
43099;DHT22;28715;51.988;6.020;2022-07-10T13:48:47;22.80;85.90
43099;DHT22;28715;51.988;6.020;2022-07-10T13:51:13;22.70;85.20
43099;DHT22;28715;51.988;6.020;2022-07-10T13:53:38;22.80;85.90
43099;DHT22;28715;51.988;6.020;2022-07-10T13:56:05;22.80;84.20
43099;DHT22;28715;51.988;6.020;2022-07-10T13:58:31;22.80;84.90
43099;DHT22;28715;51.988;6.020;2022-07-10T14:00:57;22.90;85.20
43099;DHT22;28715;51.988;6.020;2022-07-10T14:03:24;22.90;83.70
43099;DHT22;28715;51.988;6.020;2022-07-10T14:05:50;22.90;84.90
43099;DHT22;28715;51.988;6.020;2022-07-10T14:08:16;23.00;83.50
43099;DHT22;28715;51.988;6.020;2022-07-10T14:10:41;23.00;83.20
43099;DHT22;28715;51.988;6.020;2022-07-10T14:13:07;23.10;82.60
43099;DHT22;28715;51.988;6.020;2022-07-10T14:15:35;23.10;81.60
43099;DHT22;28715;51.988;6.020;2022-07-10T14:18:00;23.20;82.40
43099;DHT22;28715;51.988;6.020;2022-07-10T14:20:26;23.10;80.70
43099;DHT22;28715;51.988;6.020;2022-07-10T14:22:52;23.00;81.10
43099;DHT22;28715;51.988;6.020;2022-07-10T14:25:19;23.10;80.90
43099;DHT22;28715;51.988;6.020;2022-07-10T14:27:48;23.10;81.20
43099;DHT22;28715;51.988;6.020;2022-07-10T14:30:14;23.00;80.30
43099;DHT22;28715;51.988;6.020;2022-07-10T14:32:39;22.90;80.40
43099;DHT22;28715;51.988;6.020;2022-07-10T14:35:05;22.90;81.00
43099;DHT22;28715;51.988;6.020;2022-07-10T14:37:31;23.00;81.30
43099;DHT22;28715;51.988;6.020;2022-07-10T14:39:57;22.90;80.70
43099;DHT22;28715;51.988;6.020;2022-07-10T14:42:22;22.90;81.00
43099;DHT22;28715;51.988;6.020;2022-07-10T14:44:48;22.90;81.60
43099;DHT22;28715;51.988;6.020;2022-07-10T14:47:13;23.00;81.00
43099;DHT22;28715;51.988;6.020;2022-07-10T14:49:40;23.00;81.80
43099;DHT22;28715;51.988;6.020;2022-07-10T14:52:05;23.10;81.50
43099;DHT22;28715;51.988;6.020;2022-07-10T14:54:31;23.10;81.70
43099;DHT22;28715;51.988;6.020;2022-07-10T14:56:57;23.00;81.70
43099;DHT22;28715;51.988;6.020;2022-07-10T14:59:22;23.00;80.80
43099;DHT22;28715;51.988;6.020;2022-07-10T15:01:48;23.00;80.70
43099;DHT22;28715;51.988;6.020;2022-07-10T15:04:14;22.90;80.80
43099;DHT22;28715;51.988;6.020;2022-07-10T15:06:39;22.90;81.50
43099;DHT22;28715;51.988;6.020;2022-07-10T15:09:05;22.90;82.00
43099;DHT22;28715;51.988;6.020;2022-07-10T15:11:31;22.90;80.90
43099;DHT22;28715;51.988;6.020;2022-07-10T15:13:58;22.90;81.30
43099;DHT22;28715;51.988;6.020;2022-07-10T15:16:27;22.90;80.90
43099;DHT22;28715;51.988;6.020;2022-07-10T15:18:53;22.90;81.50
43099;DHT22;28715;51.988;6.020;2022-07-10T15:21:18;22.90;81.60
43099;DHT22;28715;51.988;6.020;2022-07-10T15:23:44;23.00;82.70
43099;DHT22;28715;51.988;6.020;2022-07-10T15:26:09;23.00;81.80
43099;DHT22;28715;51.988;6.020;2022-07-10T15:28:35;23.00;81.70
43099;DHT22;28715;51.988;6.020;2022-07-10T15:31:02;23.10;81.50
43099;DHT22;28715;51.988;6.020;2022-07-10T15:33:31;23.10;81.90
43099;DHT22;28715;51.988;6.020;2022-07-10T15:35:58;23.20;82.60
43099;DHT22;28715;51.988;6.020;2022-07-10T15:38:23;23.30;81.10
43099;DHT22;28715;51.988;6.020;2022-07-10T15:40:49;23.30;81.60
43099;DHT22;28715;51.988;6.020;2022-07-10T15:43:15;23.30;80.40
43099;DHT22;28715;51.988;6.020;2022-07-10T15:45:40;23.40;81.00
43099;DHT22;28715;51.988;6.020;2022-07-10T15:48:06;23.50;79.50